sensor_id;sensor_type;location;lat;lon;timestamp;P1;durP1;ratioP1;P2;durP2;ratioP2
30571;SDS011;17348;50.948;10.696;2022-07-05T00:00:33;6.93;;;2.10;;
30571;SDS011;17348;50.948;10.696;2022-07-05T00:03:37;2.72;;;1.88;;
30571;SDS011;17348;50.948;10.696;2022-07-05T00:06:39;6.22;;;2.03;;
30571;SDS011;17348;50.948;10.696;2022-07-05T00:10:02;3.67;;;1.90;;
30571;SDS011;17348;50.948;10.696;2022-07-05T00:13:05;4.88;;;1.77;;
30571;SDS011;17348;50.948;10.696;2022-07-05T00:16:08;2.35;;;1.90;;
30571;SDS011;17348;50.948;10.696;2022-07-05T00:19:12;2.80;;;1.60;;
30571;SDS011;17348;50.948;10.696;2022-07-05T00:22:14;9.02;;;2.22;;
30571;SDS011;17348;50.948;10.696;2022-07-05T00:25:16;3.88;;;1.90;;
30571;SDS011;17348;50.948;10.696;2022-07-05T00:28:19;2.28;;;1.65;;
30571;SDS011;17348;50.948;10.696;2022-07-05T00:31:21;3.05;;;1.63;;
30571;SDS011;17348;50.948;10.696;2022-07-05T00:34:25;3.78;;;2.00;;
30571;SDS011;17348;50.948;10.696;2022-07-05T00:37:27;4.15;;;1.85;;
30571;SDS011;17348;50.948;10.696;2022-07-05T00:40:29;3.88;;;1.90;;
30571;SDS011;17348;50.948;10.696;2022-07-05T00:43:34;2.30;;;1.67;;
30571;SDS011;17348;50.948;10.696;2022-07-05T00:46:38;3.63;;;1.90;;
30571;SDS011;17348;50.948;10.696;2022-07-05T00:49:41;2.53;;;1.80;;
30571;SDS011;17348;50.948;10.696;2022-07-05T00:52:44;7.65;;;1.67;;
30571;SDS011;17348;50.948;10.696;2022-07-05T00:55:47;5.70;;;1.65;;
30571;SDS011;17348;50.948;10.696;2022-07-05T00:58:49;4.55;;;1.98;;
30571;SDS011;17348;50.948;10.696;2022-07-05T01:01:51;6.80;;;2.22;;
30571;SDS011;17348;50.948;10.696;2022-07-05T01:04:55;11.55;;;7.35;;
30571;SDS011;17348;50.948;10.696;2022-07-05T01:07:59;17.35;;;7.55;;
30571;SDS011;17348;50.948;10.696;2022-07-05T01:11:02;11.82;;;5.75;;
30571;SDS011;17348;50.948;10.696;2022-07-05T01:14:05;12.35;;;5.78;;
30571;SDS011;17348;50.948;10.696;2022-07-05T01:17:10;9.85;;;4.95;;
30571;SDS011;17348;50.948;10.696;2022-07-05T01:20:14;4.25;;;3.20;;
30571;SDS011;17348;50.948;10.696;2022-07-05T01:23:18;4.68;;;2.80;;
30571;SDS011;17348;50.948;10.696;2022-07-05T01:26:20;7.32;;;3.00;;
30571;SDS011;17348;50.948;10.696;2022-07-05T01:29:23;3.70;;;2.70;;
30571;SDS011;17348;50.948;10.696;2022-07-05T01:32:25;6.70;;;2.53;;
30571;SDS011;17348;50.948;10.696;2022-07-05T01:35:27;5.00;;;2.40;;
30571;SDS011;17348;50.948;10.696;2022-07-05T01:38:31;9.20;;;2.20;;
30571;SDS011;17348;50.948;10.696;2022-07-05T01:41:34;3.15;;;2.38;;
30571;SDS011;17348;50.948;10.696;2022-07-05T01:44:36;9.50;;;2.38;;
30571;SDS011;17348;50.948;10.696;2022-07-05T01:47:41;2.35;;;1.70;;
30571;SDS011;17348;50.948;10.696;2022-07-05T01:50:46;9.25;;;2.15;;
30571;SDS011;17348;50.948;10.696;2022-07-05T01:53:51;4.07;;;1.63;;
30571;SDS011;17348;50.948;10.696;2022-07-05T01:56:55;3.85;;;2.47;;
30571;SDS011;17348;50.948;10.696;2022-07-05T01:59:57;3.60;;;1.92;;
30571;SDS011;17348;50.948;10.696;2022-07-05T02:02:59;2.70;;;1.70;;
30571;SDS011;17348;50.948;10.696;2022-07-05T02:06:01;6.28;;;2.28;;
30571;SDS011;17348;50.948;10.696;2022-07-05T02:09:06;4.28;;;2.10;;
30571;SDS011;17348;50.948;10.696;2022-07-05T02:12:08;4.82;;;1.85;;
30571;SDS011;17348;50.948;10.696;2022-07-05T02:15:11;5.82;;;1.70;;
30571;SDS011;17348;50.948;10.696;2022-07-05T02:18:13;3.88;;;1.70;;
30571;SDS011;17348;50.948;10.696;2022-07-05T02:21:15;2.85;;;1.75;;
30571;SDS011;17348;50.948;10.696;2022-07-05T02:24:19;6.55;;;1.65;;
30571;SDS011;17348;50.948;10.696;2022-07-05T02:27:22;2.17;;;1.55;;
30571;SDS011;17348;50.948;10.696;2022-07-05T02:30:24;4.70;;;1.70;;
30571;SDS011;17348;50.948;10.696;2022-07-05T02:33:27;7.00;;;1.70;;
30571;SDS011;17348;50.948;10.696;2022-07-05T02:36:29;1.60;;;1.13;;
30571;SDS011;17348;50.948;10.696;2022-07-05T02:39:32;3.15;;;1.58;;
30571;SDS011;17348;50.948;10.696;2022-07-05T02:42:35;7.68;;;1.63;;
30571;SDS011;17348;50.948;10.696;2022-07-05T02:45:37;1.35;;;1.20;;
30571;SDS011;17348;50.948;10.696;2022-07-05T02:48:40;1.83;;;1.13;;
30571;SDS011;17348;50.948;10.696;2022-07-05T02:51:42;7.50;;;1.67;;
30571;SDS011;17348;50.948;10.696;2022-07-05T02:54:46;3.00;;;1.45;;
30571;SDS011;17348;50.948;10.696;2022-07-05T02:57:48;2.10;;;1.20;;
30571;SDS011;17348;50.948;10.696;2022-07-05T03:00:50;4.32;;;1.80;;
30571;SDS011;17348;50.948;10.696;2022-07-05T03:03:53;4.15;;;1.40;;
30571;SDS011;17348;50.948;10.696;2022-07-05T03:06:55;5.50;;;1.98;;
30571;SDS011;17348;50.948;10.696;2022-07-05T03:09:59;4.85;;;1.90;;
30571;SDS011;17348;50.948;10.696;2022-07-05T03:13:01;4.20;;;1.75;;
30571;SDS011;17348;50.948;10.696;2022-07-05T03:16:03;3.30;;;1.73;;
30571;SDS011;17348;50.948;10.696;2022-07-05T03:19:06;2.90;;;1.65;;
30571;SDS011;17348;50.948;10.696;2022-07-05T03:22:08;2.42;;;1.85;;
30571;SDS011;17348;50.948;10.696;2022-07-05T03:25:12;6.35;;;1.65;;
30571;SDS011;17348;50.948;10.696;2022-07-05T03:28:14;4.50;;;1.80;;
30571;SDS011;17348;50.948;10.696;2022-07-05T03:31:16;7.07;;;2.00;;
30571;SDS011;17348;50.948;10.696;2022-07-05T03:34:19;4.18;;;2.30;;
30571;SDS011;17348;50.948;10.696;2022-07-05T03:37:21;4.68;;;1.80;;
30571;SDS011;17348;50.948;10.696;2022-07-05T03:40:26;6.45;;;2.00;;
30571;SDS011;17348;50.948;10.696;2022-07-05T03:43:28;4.60;;;2.03;;
30571;SDS011;17348;50.948;10.696;2022-07-05T03:46:30;7.55;;;2.22;;
30571;SDS011;17348;50.948;10.696;2022-07-05T03:49:32;3.22;;;1.65;;
30571;SDS011;17348;50.948;10.696;2022-07-05T03:52:35;3.03;;;1.80;;
30571;SDS011;17348;50.948;10.696;2022-07-05T03:55:38;8.52;;;2.13;;
30571;SDS011;17348;50.948;10.696;2022-07-05T03:58:40;2.15;;;1.58;;
30571;SDS011;17348;50.948;10.696;2022-07-05T04:01:43;2.60;;;1.67;;
30571;SDS011;17348;50.948;10.696;2022-07-05T04:04:45;4.07;;;1.80;;
30571;SDS011;17348;50.948;10.696;2022-07-05T04:07:48;3.88;;;1.90;;
30571;SDS011;17348;50.948;10.696;2022-07-05T04:10:53;4.75;;;1.80;;
30571;SDS011;17348;50.948;10.696;2022-07-05T04:13:55;3.92;;;1.73;;
30571;SDS011;17348;50.948;10.696;2022-07-05T04:16:57;2.88;;;1.60;;
30571;SDS011;17348;50.948;10.696;2022-07-05T04:19:59;4.88;;;1.58;;
30571;SDS011;17348;50.948;10.696;2022-07-05T04:23:02;4.13;;;1.98;;
30571;SDS011;17348;50.948;10.696;2022-07-05T04:26:06;4.13;;;1.50;;
30571;SDS011;17348;50.948;10.696;2022-07-05T04:29:08;7.18;;;1.77;;
30571;SDS011;17348;50.948;10.696;2022-07-05T04:32:11;3.00;;;1.77;;
30571;SDS011;17348;50.948;10.696;2022-07-05T04:35:13;7.43;;;1.73;;
30571;SDS011;17348;50.948;10.696;2022-07-05T04:38:15;8.07;;;1.60;;
30571;SDS011;17348;50.948;10.696;2022-07-05T04:41:19;3.72;;;1.88;;
30571;SDS011;17348;50.948;10.696;2022-07-05T04:44:21;4.22;;;1.60;;
30571;SDS011;17348;50.948;10.696;2022-07-05T04:47:23;2.60;;;1.67;;
30571;SDS011;17348;50.948;10.696;2022-07-05T04:50:27;4.18;;;1.83;;
30571;SDS011;17348;50.948;10.696;2022-07-05T04:53:29;2.72;;;1.70;;
30571;SDS011;17348;50.948;10.696;2022-07-05T04:56:33;7.72;;;1.50;;
30571;SDS011;17348;50.948;10.696;2022-07-05T04:59:35;4.70;;;2.28;;
30571;SDS011;17348;50.948;10.696;2022-07-05T05:02:37;5.60;;;1.95;;
30571;SDS011;17348;50.948;10.696;2022-07-05T05:05:39;15.23;;;2.97;;
30571;SDS011;17348;50.948;10.696;2022-07-05T05:08:42;6.57;;;1.65;;
30571;SDS011;17348;50.948;10.696;2022-07-05T05:11:45;2.63;;;1.63;;
30571;SDS011;17348;50.948;10.696;2022-07-05T05:14:47;2.83;;;1.58;;
30571;SDS011;17348;50.948;10.696;2022-07-05T05:17:50;3.40;;;1.23;;
30571;SDS011;17348;50.948;10.696;2022-07-05T05:20:52;7.35;;;1.98;;
30571;SDS011;17348;50.948;10.696;2022-07-05T05:23:55;10.55;;;2.10;;
30571;SDS011;17348;50.948;10.696;2022-07-05T05:26:59;4.57;;;1.40;;
30571;SDS011;17348;50.948;10.696;2022-07-05T05:30:01;3.33;;;1.60;;
30571;SDS011;17348;50.948;10.696;2022-07-05T05:33:04;3.75;;;1.90;;
30571;SDS011;17348;50.948;10.696;2022-07-05T05:36:06;5.50;;;1.23;;
30571;SDS011;17348;50.948;10.696;2022-07-05T05:39:09;5.78;;;1.30;;
30571;SDS011;17348;50.948;10.696;2022-07-05T05:42:14;4.53;;;1.33;;
30571;SDS011;17348;50.948;10.696;2022-07-05T05:45:16;2.95;;;1.40;;
30571;SDS011;17348;50.948;10.696;2022-07-05T05:48:19;4.65;;;1.42;;
30571;SDS011;17348;50.948;10.696;2022-07-05T05:51:21;2.55;;;1.10;;
30571;SDS011;17348;50.948;10.696;2022-07-05T05:54:24;6.82;;;1.15;;
30571;SDS011;17348;50.948;10.696;2022-07-05T05:57:28;2.78;;;1.38;;
30571;SDS011;17348;50.948;10.696;2022-07-05T06:00:30;6.03;;;1.73;;
30571;SDS011;17348;50.948;10.696;2022-07-05T06:03:32;2.80;;;1.17;;
30571;SDS011;17348;50.948;10.696;2022-07-05T06:06:34;5.32;;;1.60;;
30571;SDS011;17348;50.948;10.696;2022-07-05T06:09:37;8.23;;;2.85;;
30571;SDS011;17348;50.948;10.696;2022-07-05T06:12:40;1.00;;;0.90;;
30571;SDS011;17348;50.948;10.696;2022-07-05T06:15:43;5.55;;;1.50;;
30571;SDS011;17348;50.948;10.696;2022-07-05T06:18:45;3.53;;;1.20;;
30571;SDS011;17348;50.948;10.696;2022-07-05T06:21:47;12.30;;;2.75;;
30571;SDS011;17348;50.948;10.696;2022-07-05T06:24:50;2.45;;;1.33;;
30571;SDS011;17348;50.948;10.696;2022-07-05T06:27:54;2.22;;;1.77;;
30571;SDS011;17348;50.948;10.696;2022-07-05T06:30:57;1.58;;;1.20;;
30571;SDS011;17348;50.948;10.696;2022-07-05T06:34:00;5.18;;;1.38;;
30571;SDS011;17348;50.948;10.696;2022-07-05T06:37:02;7.05;;;1.50;;
30571;SDS011;17348;50.948;10.696;2022-07-05T06:40:05;4.82;;;1.40;;
30571;SDS011;17348;50.948;10.696;2022-07-05T06:43:11;6.97;;;1.60;;
30571;SDS011;17348;50.948;10.696;2022-07-05T06:46:14;8.10;;;1.70;;
30571;SDS011;17348;50.948;10.696;2022-07-05T06:49:17;3.67;;;1.50;;
30571;SDS011;17348;50.948;10.696;2022-07-05T06:52:19;5.05;;;1.48;;
30571;SDS011;17348;50.948;10.696;2022-07-05T06:55:21;8.20;;;1.88;;
30571;SDS011;17348;50.948;10.696;2022-07-05T06:58:25;5.00;;;1.40;;
30571;SDS011;17348;50.948;10.696;2022-07-05T07:01:28;3.58;;;1.80;;
30571;SDS011;17348;50.948;10.696;2022-07-05T07:04:30;7.60;;;1.75;;
30571;SDS011;17348;50.948;10.696;2022-07-05T07:07:33;5.28;;;1.42;;
30571;SDS011;17348;50.948;10.696;2022-07-05T07:10:52;4.43;;;1.40;;
30571;SDS011;17348;50.948;10.696;2022-07-05T07:13:56;3.75;;;1.30;;
30571;SDS011;17348;50.948;10.696;2022-07-05T07:16:58;11.75;;;1.30;;
30571;SDS011;17348;50.948;10.696;2022-07-05T07:20:01;4.45;;;1.40;;
30571;SDS011;17348;50.948;10.696;2022-07-05T07:23:03;8.02;;;1.73;;
30571;SDS011;17348;50.948;10.696;2022-07-05T07:26:06;9.40;;;1.95;;
30571;SDS011;17348;50.948;10.696;2022-07-05T07:29:10;10.00;;;2.55;;
30571;SDS011;17348;50.948;10.696;2022-07-05T07:32:12;6.57;;;2.20;;
30571;SDS011;17348;50.948;10.696;2022-07-05T07:35:15;17.08;;;2.78;;
30571;SDS011;17348;50.948;10.696;2022-07-05T07:38:17;10.48;;;2.60;;
30571;SDS011;17348;50.948;10.696;2022-07-05T07:41:19;6.05;;;2.17;;
30571;SDS011;17348;50.948;10.696;2022-07-05T07:44:23;3.67;;;2.08;;
30571;SDS011;17348;50.948;10.696;2022-07-05T07:47:26;13.15;;;1.90;;
30571;SDS011;17348;50.948;10.696;2022-07-05T07:50:28;7.40;;;1.70;;
30571;SDS011;17348;50.948;10.696;2022-07-05T07:53:30;4.60;;;1.42;;
30571;SDS011;17348;50.948;10.696;2022-07-05T07:56:32;6.85;;;1.05;;
30571;SDS011;17348;50.948;10.696;2022-07-05T07:59:36;7.55;;;1.15;;
30571;SDS011;17348;50.948;10.696;2022-07-05T08:02:38;5.90;;;1.50;;
30571;SDS011;17348;50.948;10.696;2022-07-05T08:05:41;6.68;;;1.30;;
30571;SDS011;17348;50.948;10.696;2022-07-05T08:08:43;9.23;;;1.30;;
30571;SDS011;17348;50.948;10.696;2022-07-05T08:11:46;2.47;;;1.42;;
30571;SDS011;17348;50.948;10.696;2022-07-05T08:14:50;2.78;;;1.50;;
30571;SDS011;17348;50.948;10.696;2022-07-05T08:17:52;4.70;;;1.50;;
30571;SDS011;17348;50.948;10.696;2022-07-05T08:21:12;6.78;;;0.95;;
30571;SDS011;17348;50.948;10.696;2022-07-05T08:24:33;2.50;;;1.25;;
30571;SDS011;17348;50.948;10.696;2022-07-05T08:27:36;5.20;;;0.95;;
30571;SDS011;17348;50.948;10.696;2022-07-05T08:30:39;1.92;;;1.00;;
30571;SDS011;17348;50.948;10.696;2022-07-05T08:33:42;8.02;;;1.33;;
30571;SDS011;17348;50.948;10.696;2022-07-05T08:36:44;6.78;;;1.00;;
30571;SDS011;17348;50.948;10.696;2022-07-05T08:39:46;4.85;;;1.00;;
30571;SDS011;17348;50.948;10.696;2022-07-05T08:42:49;5.10;;;0.90;;
30571;SDS011;17348;50.948;10.696;2022-07-05T08:45:54;10.93;;;1.20;;
30571;SDS011;17348;50.948;10.696;2022-07-05T08:48:59;5.15;;;1.20;;
30571;SDS011;17348;50.948;10.696;2022-07-05T08:52:05;1.23;;;0.77;;
30571;SDS011;17348;50.948;10.696;2022-07-05T08:55:11;4.63;;;0.68;;
30571;SDS011;17348;50.948;10.696;2022-07-05T08:58:14;2.33;;;0.90;;
30571;SDS011;17348;50.948;10.696;2022-07-05T09:01:18;3.38;;;1.02;;
30571;SDS011;17348;50.948;10.696;2022-07-05T09:04:20;6.07;;;1.10;;
30571;SDS011;17348;50.948;10.696;2022-07-05T09:07:25;2.55;;;1.10;;
30571;SDS011;17348;50.948;10.696;2022-07-05T09:10:31;2.80;;;1.00;;
30571;SDS011;17348;50.948;10.696;2022-07-05T09:13:35;5.95;;;1.40;;
30571;SDS011;17348;50.948;10.696;2022-07-05T09:16:40;4.60;;;1.40;;
30571;SDS011;17348;50.948;10.696;2022-07-05T09:19:42;5.53;;;1.10;;
30571;SDS011;17348;50.948;10.696;2022-07-05T09:22:45;2.25;;;1.15;;
30571;SDS011;17348;50.948;10.696;2022-07-05T09:25:49;2.38;;;1.25;;
30571;SDS011;17348;50.948;10.696;2022-07-05T09:29:03;5.03;;;1.15;;
30571;SDS011;17348;50.948;10.696;2022-07-05T09:32:08;7.15;;;1.42;;
30571;SDS011;17348;50.948;10.696;2022-07-05T09:35:19;4.82;;;1.30;;
30571;SDS011;17348;50.948;10.696;2022-07-05T09:38:22;2.22;;;1.05;;
30571;SDS011;17348;50.948;10.696;2022-07-05T09:41:25;10.32;;;1.30;;
30571;SDS011;17348;50.948;10.696;2022-07-05T09:44:27;4.43;;;1.00;;
30571;SDS011;17348;50.948;10.696;2022-07-05T09:47:31;2.92;;;0.93;;
30571;SDS011;17348;50.948;10.696;2022-07-05T09:50:33;2.67;;;1.10;;
30571;SDS011;17348;50.948;10.696;2022-07-05T09:53:45;2.58;;;1.30;;
30571;SDS011;17348;50.948;10.696;2022-07-05T09:56:48;1.10;;;0.73;;
30571;SDS011;17348;50.948;10.696;2022-07-05T09:59:57;7.90;;;1.50;;
30571;SDS011;17348;50.948;10.696;2022-07-05T10:03:01;2.70;;;0.90;;
30571;SDS011;17348;50.948;10.696;2022-07-05T10:06:09;3.75;;;1.05;;
30571;SDS011;17348;50.948;10.696;2022-07-05T10:09:12;4.45;;;1.05;;
30571;SDS011;17348;50.948;10.696;2022-07-05T10:12:15;6.55;;;1.30;;
30571;SDS011;17348;50.948;10.696;2022-07-05T10:15:18;4.78;;;1.65;;
30571;SDS011;17348;50.948;10.696;2022-07-05T10:18:24;7.00;;;1.30;;
30571;SDS011;17348;50.948;10.696;2022-07-05T10:21:32;2.95;;;1.50;;
30571;SDS011;17348;50.948;10.696;2022-07-05T10:24:34;4.63;;;1.48;;
30571;SDS011;17348;50.948;10.696;2022-07-05T10:27:37;3.70;;;1.00;;
30571;SDS011;17348;50.948;10.696;2022-07-05T10:30:40;2.17;;;0.95;;
30571;SDS011;17348;50.948;10.696;2022-07-05T10:33:47;6.13;;;1.25;;
30571;SDS011;17348;50.948;10.696;2022-07-05T10:36:51;2.92;;;1.10;;
30571;SDS011;17348;50.948;10.696;2022-07-05T10:39:53;3.25;;;1.10;;
30571;SDS011;17348;50.948;10.696;2022-07-05T10:42:56;2.67;;;1.00;;
30571;SDS011;17348;50.948;10.696;2022-07-05T10:46:01;4.55;;;0.90;;
30571;SDS011;17348;50.948;10.696;2022-07-05T10:49:13;4.18;;;1.33;;
30571;SDS011;17348;50.948;10.696;2022-07-05T10:52:22;4.70;;;1.10;;
30571;SDS011;17348;50.948;10.696;2022-07-05T10:55:26;5.22;;;1.02;;
30571;SDS011;17348;50.948;10.696;2022-07-05T10:58:29;3.88;;;1.02;;
30571;SDS011;17348;50.948;10.696;2022-07-05T11:01:33;1.45;;;1.00;;
30571;SDS011;17348;50.948;10.696;2022-07-05T11:04:39;9.27;;;1.27;;
30571;SDS011;17348;50.948;10.696;2022-07-05T11:07:56;4.65;;;1.00;;
30571;SDS011;17348;50.948;10.696;2022-07-05T11:11:07;4.47;;;0.93;;
30571;SDS011;17348;50.948;10.696;2022-07-05T11:20:37;4.85;;;0.85;;
30571;SDS011;17348;50.948;10.696;2022-07-05T11:23:40;2.55;;;0.77;;
30571;SDS011;17348;50.948;10.696;2022-07-05T11:26:42;1.83;;;0.73;;
30571;SDS011;17348;50.948;10.696;2022-07-05T11:29:46;1.67;;;0.90;;
30571;SDS011;17348;50.948;10.696;2022-07-05T11:32:49;10.10;;;1.38;;
30571;SDS011;17348;50.948;10.696;2022-07-05T11:35:53;7.65;;;1.05;;
30571;SDS011;17348;50.948;10.696;2022-07-05T11:39:12;6.63;;;1.08;;
30571;SDS011;17348;50.948;10.696;2022-07-05T11:42:19;2.10;;;1.02;;
30571;SDS011;17348;50.948;10.696;2022-07-05T11:45:22;8.00;;;1.20;;
30571;SDS011;17348;50.948;10.696;2022-07-05T11:48:25;2.03;;;1.17;;
30571;SDS011;17348;50.948;10.696;2022-07-05T11:51:30;2.50;;;1.10;;
30571;SDS011;17348;50.948;10.696;2022-07-05T11:54:33;6.60;;;1.10;;
30571;SDS011;17348;50.948;10.696;2022-07-05T11:57:35;1.45;;;0.77;;
30571;SDS011;17348;50.948;10.696;2022-07-05T12:00:38;3.72;;;1.10;;
30571;SDS011;17348;50.948;10.696;2022-07-05T12:03:44;2.92;;;1.00;;
30571;SDS011;17348;50.948;10.696;2022-07-05T12:06:56;3.58;;;1.00;;
30571;SDS011;17348;50.948;10.696;2022-07-05T12:09:59;4.53;;;0.93;;
30571;SDS011;17348;50.948;10.696;2022-07-05T12:13:19;3.15;;;1.00;;
30571;SDS011;17348;50.948;10.696;2022-07-05T12:16:22;3.60;;;1.08;;
30571;SDS011;17348;50.948;10.696;2022-07-05T12:19:26;3.28;;;1.15;;
30571;SDS011;17348;50.948;10.696;2022-07-05T12:22:31;1.50;;;0.98;;
30571;SDS011;17348;50.948;10.696;2022-07-05T12:25:33;3.50;;;1.08;;
30571;SDS011;17348;50.948;10.696;2022-07-05T12:28:37;7.95;;;1.35;;
30571;SDS011;17348;50.948;10.696;2022-07-05T12:31:40;5.22;;;1.27;;
30571;SDS011;17348;50.948;10.696;2022-07-05T12:35:00;4.22;;;1.33;;
30571;SDS011;17348;50.948;10.696;2022-07-05T12:38:05;4.10;;;1.27;;
30571;SDS011;17348;50.948;10.696;2022-07-05T12:41:09;6.00;;;0.95;;
30571;SDS011;17348;50.948;10.696;2022-07-05T12:44:12;2.65;;;0.98;;
30571;SDS011;17348;50.948;10.696;2022-07-05T12:47:19;1.42;;;1.15;;
30571;SDS011;17348;50.948;10.696;2022-07-05T12:50:21;2.25;;;0.95;;
30571;SDS011;17348;50.948;10.696;2022-07-05T12:53:27;2.05;;;1.08;;
30571;SDS011;17348;50.948;10.696;2022-07-05T12:56:47;4.97;;;1.20;;
30571;SDS011;17348;50.948;10.696;2022-07-05T13:00:08;3.35;;;1.40;;
30571;SDS011;17348;50.948;10.696;2022-07-05T13:03:13;5.95;;;2.05;;
30571;SDS011;17348;50.948;10.696;2022-07-05T13:06:16;3.20;;;1.42;;
30571;SDS011;17348;50.948;10.696;2022-07-05T13:09:30;4.93;;;1.40;;
30571;SDS011;17348;50.948;10.696;2022-07-05T13:12:34;4.03;;;1.27;;
30571;SDS011;17348;50.948;10.696;2022-07-05T13:15:36;5.78;;;1.55;;
30571;SDS011;17348;50.948;10.696;2022-07-05T13:18:39;3.83;;;1.70;;
30571;SDS011;17348;50.948;10.696;2022-07-05T13:21:41;5.03;;;1.83;;
30571;SDS011;17348;50.948;10.696;2022-07-05T13:24:46;6.28;;;1.50;;
30571;SDS011;17348;50.948;10.696;2022-07-05T13:27:48;6.75;;;1.35;;
30571;SDS011;17348;50.948;10.696;2022-07-05T13:30:53;6.60;;;1.20;;
30571;SDS011;17348;50.948;10.696;2022-07-05T13:33:56;2.25;;;1.38;;
30571;SDS011;17348;50.948;10.696;2022-07-05T13:37:00;1.35;;;1.00;;
30571;SDS011;17348;50.948;10.696;2022-07-05T13:40:04;10.80;;;1.25;;
30571;SDS011;17348;50.948;10.696;2022-07-05T13:43:07;4.40;;;1.23;;
30571;SDS011;17348;50.948;10.696;2022-07-05T13:46:09;7.25;;;1.70;;
30571;SDS011;17348;50.948;10.696;2022-07-05T13:49:12;4.82;;;1.60;;
30571;SDS011;17348;50.948;10.696;2022-07-05T13:52:15;9.55;;;1.52;;
30571;SDS011;17348;50.948;10.696;2022-07-05T13:55:18;2.63;;;1.20;;
30571;SDS011;17348;50.948;10.696;2022-07-05T13:58:21;2.38;;;1.27;;
30571;SDS011;17348;50.948;10.696;2022-07-05T14:01:23;1.92;;;1.27;;
30571;SDS011;17348;50.948;10.696;2022-07-05T14:04:27;11.90;;;1.30;;
30571;SDS011;17348;50.948;10.696;2022-07-05T14:07:30;9.45;;;1.20;;
30571;SDS011;17348;50.948;10.696;2022-07-05T14:10:34;1.73;;;1.25;;
30571;SDS011;17348;50.948;10.696;2022-07-05T14:13:36;2.97;;;0.85;;
30571;SDS011;17348;50.948;10.696;2022-07-05T14:16:39;5.22;;;1.33;;
30571;SDS011;17348;50.948;10.696;2022-07-05T14:19:41;2.08;;;1.25;;
30571;SDS011;17348;50.948;10.696;2022-07-05T14:22:44;7.15;;;1.25;;
30571;SDS011;17348;50.948;10.696;2022-07-05T14:25:47;7.25;;;1.42;;
30571;SDS011;17348;50.948;10.696;2022-07-05T14:28:50;2.28;;;0.88;;
30571;SDS011;17348;50.948;10.696;2022-07-05T14:31:52;3.30;;;1.05;;
30571;SDS011;17348;50.948;10.696;2022-07-05T14:34:54;7.13;;;1.52;;
30571;SDS011;17348;50.948;10.696;2022-07-05T14:37:57;2.33;;;1.00;;
30571;SDS011;17348;50.948;10.696;2022-07-05T14:41:01;2.47;;;1.05;;
30571;SDS011;17348;50.948;10.696;2022-07-05T14:44:03;8.57;;;1.83;;
30571;SDS011;17348;50.948;10.696;2022-07-05T14:47:06;6.07;;;1.00;;
30571;SDS011;17348;50.948;10.696;2022-07-05T14:50:08;3.75;;;1.33;;
30571;SDS011;17348;50.948;10.696;2022-07-05T14:53:10;8.18;;;1.35;;
30571;SDS011;17348;50.948;10.696;2022-07-05T14:56:14;2.85;;;1.15;;
30571;SDS011;17348;50.948;10.696;2022-07-05T14:59:17;5.97;;;1.48;;
30571;SDS011;17348;50.948;10.696;2022-07-05T15:02:19;6.53;;;1.10;;
30571;SDS011;17348;50.948;10.696;2022-07-05T15:05:21;8.43;;;1.35;;
30571;SDS011;17348;50.948;10.696;2022-07-05T15:08:23;3.50;;;1.00;;
30571;SDS011;17348;50.948;10.696;2022-07-05T15:11:29;4.95;;;1.10;;
30571;SDS011;17348;50.948;10.696;2022-07-05T15:14:32;2.53;;;1.30;;
30571;SDS011;17348;50.948;10.696;2022-07-05T15:17:34;2.72;;;1.38;;
30571;SDS011;17348;50.948;10.696;2022-07-05T15:20:37;6.22;;;1.17;;
30571;SDS011;17348;50.948;10.696;2022-07-05T15:23:40;1.88;;;1.42;;
30571;SDS011;17348;50.948;10.696;2022-07-05T15:26:43;7.22;;;1.73;;
30571;SDS011;17348;50.948;10.696;2022-07-05T15:29:46;5.60;;;1.35;;
30571;SDS011;17348;50.948;10.696;2022-07-05T15:32:48;8.23;;;1.63;;
30571;SDS011;17348;50.948;10.696;2022-07-05T15:35:50;3.42;;;1.38;;
30571;SDS011;17348;50.948;10.696;2022-07-05T15:38:57;2.67;;;1.30;;
30571;SDS011;17348;50.948;10.696;2022-07-05T15:42:03;4.47;;;1.48;;
30571;SDS011;17348;50.948;10.696;2022-07-05T15:45:06;1.67;;;1.33;;
30571;SDS011;17348;50.948;10.696;2022-07-05T15:48:10;3.50;;;1.23;;
30571;SDS011;17348;50.948;10.696;2022-07-05T15:51:12;2.90;;;1.55;;
30571;SDS011;17348;50.948;10.696;2022-07-05T15:54:15;6.28;;;1.52;;
30571;SDS011;17348;50.948;10.696;2022-07-05T15:57:18;3.45;;;1.13;;
30571;SDS011;17348;50.948;10.696;2022-07-05T16:00:23;1.70;;;1.27;;
30571;SDS011;17348;50.948;10.696;2022-07-05T16:03:25;4.70;;;1.60;;
30571;SDS011;17348;50.948;10.696;2022-07-05T16:06:28;6.85;;;1.55;;
30571;SDS011;17348;50.948;10.696;2022-07-05T16:09:30;5.75;;;1.70;;
30571;SDS011;17348;50.948;10.696;2022-07-05T16:12:34;2.53;;;1.30;;
30571;SDS011;17348;50.948;10.696;2022-07-05T16:15:36;5.90;;;1.58;;
30571;SDS011;17348;50.948;10.696;2022-07-05T16:18:56;2.97;;;1.10;;
30571;SDS011;17348;50.948;10.696;2022-07-05T16:22:00;8.40;;;1.65;;
30571;SDS011;17348;50.948;10.696;2022-07-05T16:25:03;4.93;;;1.45;;
30571;SDS011;17348;50.948;10.696;2022-07-05T16:28:07;3.63;;;1.40;;
30571;SDS011;17348;50.948;10.696;2022-07-05T16:31:10;6.82;;;1.45;;
30571;SDS011;17348;50.948;10.696;2022-07-05T16:34:14;5.68;;;1.63;;
30571;SDS011;17348;50.948;10.696;2022-07-05T16:37:16;9.50;;;2.40;;
30571;SDS011;17348;50.948;10.696;2022-07-05T16:40:19;3.53;;;1.27;;
30571;SDS011;17348;50.948;10.696;2022-07-05T16:43:22;4.45;;;1.60;;
30571;SDS011;17348;50.948;10.696;2022-07-05T16:46:25;2.97;;;1.60;;
30571;SDS011;17348;50.948;10.696;2022-07-05T16:49:27;5.28;;;1.52;;
30571;SDS011;17348;50.948;10.696;2022-07-05T16:52:30;5.20;;;1.38;;
30571;SDS011;17348;50.948;10.696;2022-07-05T16:55:32;13.00;;;1.33;;
30571;SDS011;17348;50.948;10.696;2022-07-05T16:58:36;4.57;;;1.20;;
30571;SDS011;17348;50.948;10.696;2022-07-05T17:01:40;1.58;;;1.30;;
30571;SDS011;17348;50.948;10.696;2022-07-05T17:04:42;4.50;;;1.70;;
30571;SDS011;17348;50.948;10.696;2022-07-05T17:07:45;2.30;;;1.25;;
30571;SDS011;17348;50.948;10.696;2022-07-05T17:10:48;7.93;;;1.75;;
30571;SDS011;17348;50.948;10.696;2022-07-05T17:13:52;8.10;;;1.83;;
30571;SDS011;17348;50.948;10.696;2022-07-05T17:16:54;5.35;;;1.67;;
30571;SDS011;17348;50.948;10.696;2022-07-05T17:19:57;4.75;;;1.42;;
30571;SDS011;17348;50.948;10.696;2022-07-05T17:22:59;3.35;;;1.20;;
30571;SDS011;17348;50.948;10.696;2022-07-05T17:26:01;4.70;;;1.45;;
30571;SDS011;17348;50.948;10.696;2022-07-05T17:29:06;8.30;;;1.80;;
30571;SDS011;17348;50.948;10.696;2022-07-05T17:32:08;6.95;;;1.65;;
30571;SDS011;17348;50.948;10.696;2022-07-05T17:35:10;2.92;;;1.45;;
30571;SDS011;17348;50.948;10.696;2022-07-05T17:38:13;4.57;;;1.38;;
30571;SDS011;17348;50.948;10.696;2022-07-05T17:41:15;2.92;;;1.73;;
30571;SDS011;17348;50.948;10.696;2022-07-05T17:44:19;7.22;;;1.38;;
30571;SDS011;17348;50.948;10.696;2022-07-05T17:47:21;8.30;;;1.25;;
30571;SDS011;17348;50.948;10.696;2022-07-05T17:50:23;10.18;;;1.73;;
30571;SDS011;17348;50.948;10.696;2022-07-05T17:53:26;9.25;;;1.70;;
30571;SDS011;17348;50.948;10.696;2022-07-05T17:56:28;3.00;;;1.25;;
30571;SDS011;17348;50.948;10.696;2022-07-05T17:59:32;1.88;;;1.35;;
30571;SDS011;17348;50.948;10.696;2022-07-05T18:02:34;4.60;;;1.92;;
30571;SDS011;17348;50.948;10.696;2022-07-05T18:05:37;9.77;;;1.55;;
30571;SDS011;17348;50.948;10.696;2022-07-05T18:08:39;3.47;;;1.38;;
30571;SDS011;17348;50.948;10.696;2022-07-05T18:11:41;7.30;;;1.65;;
30571;SDS011;17348;50.948;10.696;2022-07-05T18:14:45;6.88;;;1.50;;